Time;durP1;ratioP1;P1;durP2;ratioP2;P2;SDS_P1;SDS_P2;PMS_P1;PMS_P2;Temp;Humidity;BMP_temperature;BMP_pressure;BME280_temperature;BME280_humidity;BME280_pressure;Samples;Min_cycle;Max_cycle;Signal;HPM_P1;HPM_P2
2023/10/18 00:00:28;;;;;;;0.30;0.30;;;5.20;99.90;;;;;;5072765;28;20508;-88
2023/10/18 00:02:54;;;;;;;0.30;0.30;;;5.40;99.90;;;;;;5055440;28;20276;-89
2023/10/18 00:05:25;;;;;;;0.40;0.40;;;5.40;99.90;;;;;;5055432;28;20959;-90
2023/10/18 00:07:57;;;;;;;0.30;0.30;;;5.40;99.90;;;;;;5055134;28;20443;-88
2023/10/18 00:10:23;;;;;;;0.30;0.30;;;5.40;99.90;;;;;;5069055;28;20487;-88
2023/10/18 00:12:52;;;;;;;0.30;0.30;;;5.40;99.90;;;;;;5072025;28;20432;-89
2023/10/18 00:15:18;;;;;;;0.40;0.40;;;5.50;99.90;;;;;;5071716;28;20508;-88
2023/10/18 00:17:45;;;;;;;0.30;0.30;;;5.50;99.90;;;;;;5072715;28;20540;-89
2023/10/18 00:20:15;;;;;;;0.40;0.40;;;5.60;99.90;;;;;;5072455;28;20439;-88
2023/10/18 00:22:42;;;;;;;0.30;0.30;;;5.50;99.90;;;;;;5072155;28;21081;-88
2023/10/18 00:25:11;;;;;;;0.30;0.30;;;5.50;99.90;;;;;;5054944;28;20863;-88
2023/10/18 00:27:46;;;;;;;0.40;0.40;;;5.60;99.90;;;;;;5061331;28;20447;-89
2023/10/18 00:30:11;;;;;;;0.30;0.30;;;5.50;99.90;;;;;;5071404;28;20427;-88
2023/10/18 00:32:39;;;;;;;0.30;0.30;;;5.40;99.90;;;;;;5072352;28;21137;-88
2023/10/18 00:35:21;;;;;;;0.30;0.30;;;5.60;99.90;;;;;;5056047;28;20440;-87
2023/10/18 00:37:54;;;;;;;0.30;0.30;;;5.70;99.90;;;;;;5071230;28;20456;-88
2023/10/18 00:45:47;;;;;;;0.30;0.30;;;5.80;99.90;;;;;;5067113;28;20436;-88
2023/10/18 00:48:13;;;;;;;0.30;0.30;;;5.70;99.90;;;;;;5053895;28;21216;-89
2023/10/18 00:50:43;;;;;;;0.30;0.30;;;5.80;99.90;;;;;;5070852;28;20428;-88
2023/10/18 00:53:10;;;;;;;0.30;0.30;;;5.70;99.90;;;;;;5052582;28;20441;-88
2023/10/18 00:55:37;;;;;;;0.30;0.30;;;5.70;99.90;;;;;;5071644;28;20431;-88
2023/10/18 00:58:09;;;;;;;0.30;0.30;;;5.60;99.90;;;;;;5052714;28;20452;-88
2023/10/18 01:00:37;;;;;;;0.30;0.30;;;5.50;99.90;;;;;;5068406;28;20838;-88
2023/10/18 01:03:06;;;;;;;0.30;0.30;;;5.30;99.90;;;;;;5065940;28;20509;-87
2023/10/18 01:05:35;;;;;;;0.40;0.40;;;5.50;99.90;;;;;;5053269;28;20814;-88
2023/10/18 01:08:06;;;;;;;0.40;0.40;;;5.70;99.90;;;;;;5069175;28;20436;-88
2023/10/18 01:10:32;;;;;;;0.30;0.30;;;5.50;99.90;;;;;;5071566;28;20426;-88
2023/10/18 01:12:58;;;;;;;0.30;0.30;;;5.50;99.90;;;;;;5071192;28;20527;-88
2023/10/18 01:15:27;;;;;;;0.30;0.30;;;5.30;99.90;;;;;;5052561;28;20185;-89
2023/10/18 01:17:54;;;;;;;0.30;0.30;;;5.20;99.90;;;;;;5071943;28;20440;-88
2023/10/18 01:22:57;;;;;;;0.30;0.30;;;4.90;99.90;;;;;;5071090;28;20490;-90
2023/10/18 01:25:24;;;;;;;0.30;0.30;;;4.90;99.90;;;;;;5068059;28;20436;-89
2023/10/18 01:27:51;;;;;;;0.30;0.30;;;4.80;99.90;;;;;;5070582;28;20212;-88
2023/10/18 01:30:20;;;;;;;0.30;0.30;;;4.60;99.90;;;;;;5067701;28;20830;-89
2023/10/18 01:32:45;;;;;;;0.30;0.30;;;4.50;99.90;;;;;;5052187;28;22167;-88
2023/10/18 01:35:15;;;;;;;0.30;0.30;;;4.50;99.90;;;;;;5070746;28;20515;-89
2023/10/18 01:37:43;;;;;;;0.30;0.30;;;4.50;99.90;;;;;;5071381;28;20177;-88
2023/10/18 01:40:52;;;;;;;0.40;0.40;;;4.40;99.90;;;;;;5059326;28;20457;-88
2023/10/18 01:42:58;;;;;;;0.40;0.40;;;4.30;99.90;;;;;;5056371;28;20436;-89
2023/10/18 01:45:29;;;;;;;0.30;0.30;;;4.20;99.90;;;;;;5071383;28;20432;-88
2023/10/18 01:47:55;;;;;;;0.30;0.30;;;4.20;99.90;;;;;;5070977;28;20178;-88
2023/10/18 01:50:21;;;;;;;0.30;0.30;;;4.20;99.90;;;;;;5069108;28;20458;-88
2023/10/18 01:52:46;;;;;;;0.30;0.30;;;4.20;99.90;;;;;;5065347;28;20483;-88
2023/10/18 01:55:12;;;;;;;0.40;0.40;;;4.20;99.90;;;;;;5062894;28;20531;-89
2023/10/18 01:57:43;;;;;;;0.40;0.40;;;4.10;99.90;;;;;;5071661;28;20170;-89
2023/10/18 02:00:44;;;;;;;0.37;0.37;;;4.20;99.90;;;;;;5070545;28;20251;-89
2023/10/18 02:03:02;;;;;;;0.40;0.40;;;4.20;99.90;;;;;;5066903;28;20501;-88
2023/10/18 02:05:27;;;;;;;0.40;0.40;;;4.10;99.90;;;;;;5070622;28;20424;-89
2023/10/18 02:07:55;;;;;;;0.30;0.30;;;4.10;99.90;;;;;;5061583;28;20460;-89
2023/10/18 02:10:23;;;;;;;;;;;4.20;99.90;;;;;;5069234;28;20186;-89
2023/10/18 02:12:48;;;;;;;;;;;4.10;99.90;;;;;;5072080;28;19963;-89
2023/10/18 02:15:14;;;;;;;;;;;4.10;99.90;;;;;;5070759;28;19943;-89
2023/10/18 02:17:43;;;;;;;;;;;4.10;99.90;;;;;;5071873;28;19912;-88
2023/10/18 02:20:26;;;;;;;;;;;4.10;99.90;;;;;;5071115;28;19912;-89
2023/10/18 02:23:01;;;;;;;;;;;4.10;99.90;;;;;;5065078;28;20008;-89
2023/10/18 02:25:43;;;;;;;;;;;4.20;99.90;;;;;;5052872;28;19912;-89
2023/10/18 02:28:27;;;;;;;;;;;4.20;99.90;;;;;;5070741;28;19951;-88
2023/10/18 02:33:39;;;;;;;;;;;4.20;99.90;;;;;;5070508;28;19919;-88
2023/10/18 02:36:06;;;;;;;;;;;4.20;99.90;;;;;;5069330;28;19908;-89
2023/10/18 02:38:33;;;;;;;;;;;4.20;99.90;;;;;;5075339;28;19912;-88
2023/10/18 02:41:01;;;;;;;;;;;4.00;99.90;;;;;;5053547;28;19962;-89
2023/10/18 02:43:29;;;;;;;;;;;3.90;99.90;;;;;;5074552;28;19917;-88
2023/10/18 02:45:54;;;;;;;;;;;4.00;99.90;;;;;;5073602;28;19904;-88
2023/10/18 02:48:24;;;;;;;;;;;4.10;99.90;;;;;;5074045;28;19912;-89
2023/10/18 02:50:50;;;;;;;;;;;4.10;99.90;;;;;;5073635;28;19966;-88
2023/10/18 02:53:17;;;;;;;;;;;4.20;99.90;;;;;;5054939;28;19919;-88
2023/10/18 02:55:55;;;;;;;;;;;4.10;99.90;;;;;;5063951;28;19909;-88
2023/10/18 02:58:21;;;;;;;;;;;4.20;99.90;;;;;;5073842;28;19922;-89
2023/10/18 03:00:46;;;;;;;;;;;4.50;99.90;;;;;;5072514;28;19912;-88
2023/10/18 03:03:12;;;;;;;;;;;4.70;99.90;;;;;;5074678;28;19958;-89
2023/10/18 03:05:41;;;;;;;;;;;4.90;99.90;;;;;;5075273;28;19908;-88
2023/10/18 03:08:08;;;;;;;;;;;5.00;99.90;;;;;;5065862;28;19905;-89
2023/10/18 03:10:44;;;;;;;;;;;4.80;99.90;;;;;;5070534;28;19912;-89
2023/10/18 03:13:14;;;;;;;;;;;4.70;99.90;;;;;;5074459;28;19959;-89
2023/10/18 03:16:04;;;;;;;;;;;4.70;99.90;;;;;;5073272;28;20026;-88
2023/10/18 03:18:30;;;;;;;;;;;4.90;99.90;;;;;;5076599;28;19908;-88
2023/10/18 03:20:57;;;;;;;;;;;5.00;99.90;;;;;;5056539;28;20427;-88
2023/10/18 03:23:26;;;;;;;;;;;5.20;99.90;;;;;;5072175;28;19920;-87
2023/10/18 03:26:03;;;;;;;;;;;5.30;99.90;;;;;;5073421;28;19922;-89
2023/10/18 03:28:34;;;;;;;;;;;5.30;99.90;;;;;;5036401;28;19909;-89
2023/10/18 03:31:00;;;;;;;0.30;0.30;;;5.30;99.90;;;;;;5048941;28;20500;-89
2023/10/18 03:33:28;;;;;;;0.30;0.30;;;5.30;99.90;;;;;;5074395;28;20880;-89
2023/10/18 03:36:09;;;;;;;0.30;0.30;;;5.40;99.90;;;;;;5056476;28;21062;-89
2023/10/18 03:38:41;;;;;;;0.30;0.30;;;5.30;99.90;;;;;;5074069;28;20424;-90
2023/10/18 03:41:09;;;;;;;0.30;0.30;;;5.40;99.90;;;;;;5055832;28;20785;-89
2023/10/18 03:43:36;;;;;;;0.30;0.30;;;5.40;99.90;;;;;;5074265;28;20551;-89
2023/10/18 03:48:45;;;;;;;0.30;0.30;;;5.50;99.90;;;;;;5073040;28;20440;-89
2023/10/18 03:51:18;;;;;;;0.40;0.40;;;5.50;99.90;;;;;;5073855;28;20479;-89
2023/10/18 03:53:46;;;;;;;0.37;0.37;;;5.50;99.90;;;;;;5072980;28;20544;-89
2023/10/18 03:56:13;;;;;;;0.30;0.30;;;5.50;99.90;;;;;;5072668;28;20458;-89
2023/10/18 03:58:42;;;;;;;0.30;0.30;;;5.60;99.90;;;;;;5074035;28;20908;-90
2023/10/18 04:01:12;;;;;;;0.30;0.30;;;5.70;99.90;;;;;;5070472;28;20508;-89
2023/10/18 04:03:39;;;;;;;0.30;0.30;;;5.60;99.90;;;;;;5055809;28;20436;-90
2023/10/18 04:06:07;;;;;;;0.30;0.30;;;5.50;99.90;;;;;;5073358;28;20550;-89
2023/10/18 04:08:34;;;;;;;0.30;0.30;;;5.50;99.90;;;;;;5073946;28;20497;-89
2023/10/18 04:11:00;;;;;;;0.30;0.30;;;5.40;99.90;;;;;;5073674;28;20456;-89
2023/10/18 04:13:31;;;;;;;0.30;0.30;;;5.40;99.90;;;;;;5073535;28;20867;-90
2023/10/18 04:16:11;;;;;;;0.40;0.40;;;5.40;99.90;;;;;;5072620;28;20166;-88
2023/10/18 04:18:42;;;;;;;0.40;0.40;;;5.40;99.90;;;;;;5068655;28;20454;-88
2023/10/18 04:21:15;;;;;;;0.30;0.30;;;5.30;99.90;;;;;;5078544;28;20440;-89
2023/10/18 04:23:49;;;;;;;0.30;0.30;;;5.30;99.90;;;;;;5081335;28;20436;-89
2023/10/18 04:26:18;;;;;;;0.40;0.40;;;5.30;99.90;;;;;;5072425;28;21123;-89
2023/10/18 04:28:45;;;;;;;0.30;0.30;;;5.30;99.90;;;;;;5055534;28;20436;-89
2023/10/18 04:31:14;;;;;;;0.30;0.30;;;5.30;99.90;;;;;;5061393;28;20542;-89
2023/10/18 04:33:53;;;;;;;0.30;0.30;;;5.40;99.90;;;;;;5059629;28;20479;-90
2023/10/18 04:36:22;;;;;;;0.40;0.40;;;5.30;99.90;;;;;;5060171;28;20948;-90
2023/10/18 04:38:49;;;;;;;0.30;0.30;;;5.30;99.90;;;;;;5045411;28;20523;-89
2023/10/18 04:41:27;;;;;;;0.30;0.30;;;5.30;99.90;;;;;;5054217;28;20440;-89
2023/10/18 04:44:07;;;;;;;0.30;0.30;;;5.30;99.90;;;;;;5044264;28;20836;-89
2023/10/18 04:46:35;;;;;;;0.30;0.30;;;5.30;99.90;;;;;;5065456;28;20436;-89
2023/10/18 04:49:16;;;;;;;0.30;0.30;;;5.20;99.90;;;;;;5072643;28;20437;-89
2023/10/18 04:54:15;;;;;;;0.40;0.40;;;5.20;99.90;;;;;;5063603;28;20451;-89
2023/10/18 04:56:46;;;;;;;0.40;0.40;;;5.10;99.90;;;;;;5042471;28;20971;-89
2023/10/18 05:04:32;;;;;;;0.30;0.30;;;5.00;99.90;;;;;;5070768;28;20448;-89
2023/10/18 05:07:00;;;;;;;0.40;0.40;;;5.00;99.90;;;;;;5052132;28;20518;-89
2023/10/18 05:09:42;;;;;;;0.30;0.30;;;4.90;99.90;;;;;;5070368;28;20479;-90
2023/10/18 05:12:16;;;;;;;0.30;0.30;;;4.80;99.90;;;;;;5043688;28;20916;-88
2023/10/18 05:14:43;;;;;;;0.30;0.30;;;4.70;99.90;;;;;;5069516;28;20432;-92
2023/10/18 05:17:22;;;;;;;0.40;0.40;;;4.60;99.90;;;;;;5078081;28;20534;-91
2023/10/18 05:19:51;;;;;;;0.40;0.40;;;4.60;99.90;;;;;;5068348;28;20448;-89
2023/10/18 05:22:20;;;;;;;0.40;0.40;;;4.40;99.90;;;;;;5069619;28;20455;-88
2023/10/18 05:25:11;;;;;;;0.33;0.33;;;4.50;99.90;;;;;;5061808;28;20558;-86
2023/10/18 05:27:39;;;;;;;0.40;0.40;;;4.50;99.90;;;;;;5047699;28;20457;-87
2023/10/18 05:30:14;;;;;;;0.30;0.30;;;4.60;99.90;;;;;;5046774;28;20861;-89
2023/10/18 05:32:54;;;;;;;0.30;0.30;;;4.60;99.90;;;;;;5066614;28;20558;-89
2023/10/18 05:35:21;;;;;;;0.30;0.30;;;4.80;99.90;;;;;;5069937;28;20428;-89
2023/10/18 05:37:59;;;;;;;0.30;0.30;;;4.80;99.90;;;;;;5068149;28;20473;-88
2023/10/18 05:43:05;;;;;;;0.30;0.30;;;4.80;99.90;;;;;;5063123;28;20532;-89
2023/10/18 05:45:34;;;;;;;0.40;0.40;;;4.80;99.90;;;;;;5064673;28;20440;-89
2023/10/18 05:48:12;;;;;;;0.30;0.30;;;4.90;99.90;;;;;;5067658;28;20441;-88
2023/10/18 05:50:38;;;;;;;0.30;0.30;;;4.90;99.90;;;;;;5063189;28;20497;-90
2023/10/18 05:53:10;;;;;;;0.30;0.30;;;5.00;99.90;;;;;;5053238;28;20447;-90
2023/10/18 05:55:38;;;;;;;0.30;0.30;;;4.90;99.90;;;;;;5066387;28;20285;-89
2023/10/18 05:58:04;;;;;;;0.30;0.30;;;5.00;99.90;;;;;;5060192;28;20447;-90
2023/10/18 06:00:33;;;;;;;0.30;0.30;;;5.00;99.90;;;;;;5036307;28;20481;-90
2023/10/18 06:03:01;;;;;;;0.30;0.30;;;4.90;99.90;;;;;;5018233;28;21005;-89
2023/10/18 06:05:38;;;;;;;0.40;0.40;;;4.90;99.90;;;;;;5013513;28;20454;-90
2023/10/18 06:08:07;;;;;;;0.30;0.30;;;5.00;99.90;;;;;;5026433;28;20441;-91
2023/10/18 06:10:38;;;;;;;0.40;0.40;;;5.00;99.90;;;;;;5033890;28;20442;-88
2023/10/18 06:13:09;;;;;;;0.30;0.30;;;5.10;99.90;;;;;;5028080;28;20541;-90
2023/10/18 06:15:38;;;;;;;0.30;0.30;;;5.10;99.90;;;;;;5033631;28;20524;-89
2023/10/18 06:18:09;;;;;;;0.30;0.30;;;5.10;99.90;;;;;;5023395;28;20483;-91
2023/10/18 06:20:38;;;;;;;0.30;0.30;;;5.20;99.90;;;;;;5024190;28;20458;-92
2023/10/18 06:23:17;;;;;;;0.30;0.30;;;5.10;99.90;;;;;;5019758;28;20951;-88
2023/10/18 06:25:49;;;;;;;0.30;0.30;;;5.10;99.90;;;;;;5023337;28;20441;-87
2023/10/18 06:28:21;;;;;;;0.30;0.30;;;5.10;99.90;;;;;;5017763;28;21280;-88
2023/10/18 06:30:56;;;;;;;0.30;0.30;;;5.20;99.90;;;;;;5025269;28;20441;-86
2023/10/18 06:33:22;;;;;;;0.40;0.40;;;5.20;99.90;;;;;;5017019;28;20452;-85
2023/10/18 06:35:52;;;;;;;0.30;0.30;;;5.30;99.90;;;;;;5025078;28;20942;-87
2023/10/18 06:38:26;;;;;;;0.30;0.30;;;5.30;99.90;;;;;;5015178;28;21110;-87
2023/10/18 06:40:53;;;;;;;0.30;0.30;;;5.40;99.90;;;;;;5029504;28;20478;-86
2023/10/18 06:43:20;;;;;;;0.30;0.30;;;5.30;99.90;;;;;;5017621;28;20450;-88
2023/10/18 06:45:48;;;;;;;0.30;0.30;;;5.40;99.90;;;;;;5016546;28;20475;-86
2023/10/18 06:48:14;;;;;;;0.30;0.30;;;5.40;99.90;;;;;;5027462;28;20442;-88
2023/10/18 06:50:40;;;;;;;0.30;0.30;;;5.40;99.90;;;;;;5018823;28;20453;-87
2023/10/18 06:53:06;;;;;;;0.30;0.30;;;5.50;99.90;;;;;;5019493;28;20470;-86
2023/10/18 07:00:55;;;;;;;0.30;0.30;;;5.70;99.90;;;;;;5039582;28;20473;-91
2023/10/18 07:03:42;;;;;;;0.30;0.30;;;5.70;99.90;;;;;;5055858;28;21553;-89
2023/10/18 07:06:16;;;;;;;0.30;0.30;;;5.70;99.90;;;;;;5050256;28;20448;-91
2023/10/18 07:08:44;;;;;;;0.30;0.30;;;5.80;99.90;;;;;;5047111;28;20531;-91
2023/10/18 07:11:18;;;;;;;0.30;0.30;;;5.80;99.90;;;;;;5043625;28;20463;-90
2023/10/18 07:13:46;;;;;;;0.30;0.30;;;5.90;99.90;;;;;;5064693;28;20460;-89
2023/10/18 07:16:14;;;;;;;0.30;0.30;;;6.00;99.90;;;;;;5063988;28;20522;-90
2023/10/18 07:18:42;;;;;;;0.30;0.30;;;6.10;99.90;;;;;;5064053;28;20448;-90
2023/10/18 07:21:09;;;;;;;0.30;0.30;;;6.20;99.90;;;;;;5056461;28;20784;-91
2023/10/18 07:23:39;;;;;;;0.30;0.30;;;6.30;99.90;;;;;;5061450;28;20448;-90
2023/10/18 07:26:15;;;;;;;0.30;0.30;;;6.40;99.90;;;;;;5054835;28;20287;-87
2023/10/18 07:28:43;;;;;;;;;;;6.50;99.90;;;;;;5035839;28;20538;-86
2023/10/18 07:31:09;;;;;;;;;;;6.70;99.90;;;;;;5056924;28;19920;-87
2023/10/18 07:33:40;;;;;;;;;;;6.80;99.90;;;;;;5055103;28;19908;-90
2023/10/18 07:36:09;;;;;;;0.20;0.20;;;6.90;99.90;;;;;;5062004;28;19916;-91
2023/10/18 07:38:47;;;;;;;0.30;0.30;;;7.20;99.90;;;;;;5067801;28;20456;-89
2023/10/18 07:41:15;;;;;;;0.30;0.30;;;7.20;99.90;;;;;;5056059;28;20429;-88
2023/10/18 07:43:44;;;;;;;0.20;0.20;;;7.30;99.90;;;;;;5066005;28;20752;-88
2023/10/18 07:46:16;;;;;;;0.30;0.30;;;7.40;99.90;;;;;;5067834;28;20432;-88
2023/10/18 07:48:46;;;;;;;0.23;0.23;;;7.50;99.90;;;;;;5067260;28;20493;-89
2023/10/18 07:51:25;;;;;;;0.23;0.23;;;7.60;99.90;;;;;;5048318;28;20507;-91
2023/10/18 07:53:53;;;;;;;0.20;0.20;;;7.70;99.90;;;;;;5063977;28;20498;-90
2023/10/18 07:56:26;;;;;;;0.20;0.20;;;7.90;99.90;;;;;;5071252;28;20441;-89
2023/10/18 07:58:53;;;;;;;0.20;0.20;;;8.10;99.90;;;;;;5040939;28;20452;-88
2023/10/18 08:04:04;;;;;;;0.20;0.20;;;8.40;99.90;;;;;;5061584;28;20436;-88
2023/10/18 08:06:33;;;;;;;0.20;0.20;;;8.50;99.90;;;;;;5061966;28;20445;-90
2023/10/18 08:09:03;;;;;;;0.20;0.20;;;8.60;99.90;;;;;;5071009;28;20183;-87
2023/10/18 08:11:32;;;;;;;0.20;0.20;;;8.70;99.90;;;;;;5070338;28;20546;-87
2023/10/18 08:13:58;;;;;;;0.20;0.20;;;8.90;99.90;;;;;;5063239;28;20440;-87
2023/10/18 08:16:27;;;;;;;0.20;0.20;;;8.90;99.90;;;;;;5065468;28;20442;-87
2023/10/18 08:18:53;;;;;;;0.10;0.10;;;9.00;99.90;;;;;;5053414;28;20461;-87
2023/10/18 08:24:20;;;;;;;0.20;0.20;;;9.30;99.90;;;;;;5007003;28;20623;-87
2023/10/18 08:26:46;;;;;;;0.20;0.20;;;9.40;99.90;;;;;;5046453;28;21004;-88
2023/10/18 08:29:16;;;;;;;0.20;0.20;;;9.40;99.90;;;;;;5064793;28;20435;-88
2023/10/18 08:31:48;;;;;;;0.20;0.20;;;9.70;99.90;;;;;;5060462;28;20566;-87
2023/10/18 08:34:23;;;;;;;0.20;0.20;;;9.90;99.90;;;;;;5062224;28;20444;-92
2023/10/18 08:36:50;;;;;;;0.20;0.20;;;10.00;99.90;;;;;;5062005;28;20464;-89
2023/10/18 08:39:25;;;;;;;0.20;0.20;;;10.20;99.90;;;;;;5036128;28;20752;-92
2023/10/18 08:42:02;;;;;;;0.10;0.10;;;10.30;99.90;;;;;;5065462;28;20565;-91
2023/10/18 08:44:29;;;;;;;0.20;0.20;;;10.50;99.90;;;;;;5045932;28;20934;-91
2023/10/18 08:47:04;;;;;;;0.20;0.20;;;10.60;99.90;;;;;;5052807;28;20843;-90
2023/10/18 08:49:33;;;;;;;0.10;0.10;;;10.90;99.90;;;;;;5059460;28;20436;-88
2023/10/18 08:52:08;;;;;;;0.20;0.20;;;10.70;99.90;;;;;;5065357;28;20521;-88
2023/10/18 08:54:39;;;;;;;0.10;0.10;;;10.70;99.90;;;;;;5061905;28;20978;-89
2023/10/18 08:57:08;;;;;;;0.20;0.20;;;10.90;99.90;;;;;;5042398;28;21048;-88
2023/10/18 08:59:43;;;;;;;0.20;0.20;;;11.20;99.90;;;;;;5065104;28;20787;-88
2023/10/18 09:02:13;;;;;;;0.20;0.20;;;11.40;99.90;;;;;;5061254;28;20479;-90
2023/10/18 09:04:44;;;;;;;0.10;0.10;;;11.40;99.90;;;;;;5046754;28;20478;-89
2023/10/18 09:07:22;;;;;;;0.10;0.10;;;11.70;99.90;;;;;;5059765;28;20808;-88
2023/10/18 09:09:54;;;;;;;0.10;0.10;;;11.70;99.90;;;;;;5060066;28;20484;-85
2023/10/18 09:12:33;;;;;;;0.10;0.10;;;11.90;99.90;;;;;;5041153;28;20894;-83
2023/10/18 09:15:25;;;;;;;0.10;0.10;;;12.10;99.90;;;;;;5065364;28;20445;-87
2023/10/18 09:17:45;;;;;;;0.10;0.10;;;12.30;99.90;;;;;;5067485;28;20436;-85
2023/10/18 09:20:15;;;;;;;0.10;0.10;;;12.40;99.90;;;;;;5062673;28;20440;-86
2023/10/18 09:22:45;;;;;;;0.10;0.10;;;12.40;99.90;;;;;;5058700;28;20182;-85
2023/10/18 09:25:12;;;;;;;0.10;0.10;;;12.60;99.90;;;;;;5054974;28;21246;-85
2023/10/18 09:27:38;;;;;;;0.10;0.10;;;12.90;99.90;;;;;;5065732;28;20428;-85
2023/10/18 09:30:04;;;;;;;0.10;0.10;;;13.20;99.90;;;;;;5067050;28;20194;-85
2023/10/18 09:32:33;;;;;;;0.10;0.10;;;13.50;99.90;;;;;;5046351;28;20227;-86
2023/10/18 09:35:08;;;;;;;0.10;0.10;;;13.40;99.90;;;;;;5051220;28;20441;-87
2023/10/18 09:37:36;;;;;;;0.10;0.10;;;13.60;99.90;;;;;;5059325;28;20493;-87
2023/10/18 09:40:03;;;;;;;0.10;0.10;;;13.70;99.90;;;;;;5064456;28;20434;-87
2023/10/18 09:42:29;;;;;;;0.10;0.10;;;13.90;99.90;;;;;;5056815;28;20517;-88
2023/10/18 09:44:55;;;;;;;0.10;0.10;;;13.90;99.90;;;;;;5061320;28;20429;-85
2023/10/18 09:47:25;;;;;;;0.10;0.10;;;14.30;99.90;;;;;;5065371;28;20444;-85
2023/10/18 09:49:51;;;;;;;0.10;0.10;;;14.40;99.90;;;;;;5070555;28;20202;-87
2023/10/18 09:52:18;;;;;;;0.10;0.10;;;14.40;99.90;;;;;;5072408;28;20483;-88
2023/10/18 09:54:50;;;;;;;0.10;0.10;;;14.30;99.90;;;;;;5067880;28;20939;-88
2023/10/18 09:57:23;;;;;;;0.10;0.10;;;14.60;99.90;;;;;;5070134;28;20442;-90
2023/10/18 09:59:51;;;;;;;0.10;0.10;;;14.90;99.90;;;;;;5070505;28;20429;-90
2023/10/18 10:02:18;;;;;;;0.10;0.10;;;15.20;99.90;;;;;;5051605;28;20485;-88
2023/10/18 10:04:43;;;;;;;0.10;0.10;;;15.50;99.90;;;;;;5069233;28;20451;-90
2023/10/18 10:07:36;;;;;;;0.10;0.10;;;15.80;99.90;;;;;;5048884;28;20881;-90
2023/10/18 10:10:08;;;;;;;0.10;0.10;;;15.90;99.90;;;;;;5069444;28;20461;-89
2023/10/18 10:12:35;;;;;;;0.10;0.10;;;15.80;99.90;;;;;;5065706;28;20482;-90
2023/10/18 10:15:02;;;;;;;0.10;0.10;;;16.20;99.90;;;;;;5070391;28;20420;-89
2023/10/18 10:17:30;;;;;;;0.10;0.00;;;16.10;99.90;;;;;;5068939;28;20432;-89
2023/10/18 10:20:40;;;;;;;0.10;0.00;;;16.60;99.90;;;;;;5069353;28;20908;-88
2023/10/18 10:22:55;;;;;;;0.10;0.00;;;16.40;99.90;;;;;;5062948;28;20459;-88
2023/10/18 10:25:31;;;;;;;0.10;0.10;;;16.30;99.90;;;;;;5069786;28;20430;-91
2023/10/18 10:27:59;;;;;;;0.10;0.10;;;16.50;99.90;;;;;;5066777;28;20446;-89
2023/10/18 10:30:35;;;;;;;0.10;0.00;;;16.80;99.90;;;;;;5069248;28;20428;-88
2023/10/18 10:33:05;;;;;;;0.10;0.10;;;16.90;99.90;;;;;;5065164;28;20467;-88
2023/10/18 10:35:32;;;;;;;0.10;0.00;;;17.20;99.90;;;;;;5066323;28;20447;-89
2023/10/18 10:38:01;;;;;;;0.10;0.00;;;17.10;99.90;;;;;;5066400;28;20461;-90
2023/10/18 10:43:03;;;;;;;0.10;0.00;;;17.20;99.90;;;;;;5058641;28;20441;-88
2023/10/18 10:45:53;;;;;;;0.10;0.00;;;17.20;99.90;;;;;;5052279;28;20936;-89
2023/10/18 10:48:30;;;;;;;0.10;0.00;;;17.70;99.90;;;;;;5050475;28;20500;-90
2023/10/18 10:51:13;;;;;;;0.10;0.00;;;18.10;99.90;;;;;;5048183;28;20446;-88
2023/10/18 10:53:57;;;;;;;0.10;0.00;;;17.60;99.90;;;;;;5062638;28;20440;-89
2023/10/18 10:56:32;;;;;;;0.10;0.00;;;17.30;99.90;;;;;;5046283;28;20462;-90
2023/10/18 10:59:09;;;;;;;0.10;0.00;;;16.90;99.90;;;;;;5066547;28;20442;-90
2023/10/18 11:01:43;;;;;;;0.10;0.00;;;17.10;99.90;;;;;;5062252;28;20479;-89
2023/10/18 11:04:29;;;;;;;0.10;0.00;;;17.80;99.90;;;;;;5036827;28;20437;-89
2023/10/18 11:07:03;;;;;;;0.10;0.00;;;18.20;99.90;;;;;;5028076;28;20425;-88
2023/10/18 11:09:34;;;;;;;0.10;0.00;;;18.70;99.90;;;;;;5066150;28;20438;-89
2023/10/18 11:12:07;;;;;;;0.10;0.00;;;18.90;99.90;;;;;;5061048;28;20479;-90
2023/10/18 11:14:35;;;;;;;0.10;0.00;;;18.50;99.90;;;;;;5067389;28;20429;-88
2023/10/18 11:19:51;;;;;;;0.10;0.00;;;18.70;99.90;;;;;;5054503;28;21024;-86
2023/10/18 11:22:20;;;;;;;0.10;0.00;;;18.70;99.90;;;;;;5063612;28;20423;-88
2023/10/18 11:24:49;;;;;;;0.10;0.00;;;19.10;99.90;;;;;;5054959;28;20429;-91
2023/10/18 11:27:17;;;;;;;0.10;0.00;;;19.20;99.90;;;;;;5067869;28;20427;-91
2023/10/18 11:29:43;;;;;;;0.10;0.00;;;19.00;99.90;;;;;;5058352;28;21000;-92
2023/10/18 11:32:17;;;;;;;0.10;0.00;;;18.90;99.90;;;;;;5043039;28;20850;-87
2023/10/18 11:34:46;;;;;;;;;;;19.20;99.90;;;;;;5059440;28;20310;-90
2023/10/18 11:37:34;;;;;;;0.10;0.00;;;19.10;99.90;;;;;;5055452;28;20303;-89
2023/10/18 11:40:14;;;;;;;0.10;0.00;;;19.20;99.90;;;;;;5038147;28;20287;-88
2023/10/18 11:43:06;;;;;;;0.10;0.00;;;19.20;99.90;;;;;;5068467;28;20257;-90
2023/10/18 11:45:38;;;;;;;0.10;0.00;;;18.30;99.90;;;;;;5058472;28;20431;-88
2023/10/18 11:48:11;;;;;;;0.10;0.00;;;19.10;99.90;;;;;;5064190;28;20431;-86
2023/10/18 11:50:41;;;;;;;0.10;0.00;;;18.90;99.90;;;;;;5060002;28;20476;-87
2023/10/18 11:53:08;;;;;;;;;;;19.20;99.90;;;;;;5052238;28;20475;-87
2023/10/18 11:55:33;;;;;;;;;;;19.20;99.90;;;;;;5073225;28;19924;-88
2023/10/18 11:58:09;;;;;;;0.10;0.00;;;18.60;99.90;;;;;;5047769;28;19927;-87
2023/10/18 12:00:38;;;;;;;0.10;0.00;;;19.00;99.90;;;;;;5038861;28;20118;-89
2023/10/18 12:03:05;;;;;;;;;;;18.20;99.90;;;;;;5028740;28;21229;-91
2023/10/18 12:05:31;;;;;;;;;;;18.40;99.90;;;;;;5034894;28;19956;-89
2023/10/18 12:08:01;;;;;;;;;;;19.30;99.90;;;;;;5033777;28;19909;-92
2023/10/18 12:10:34;;;;;;;;;;;19.00;99.90;;;;;;5031978;28;19915;-89
2023/10/18 12:13:02;;;;;;;;;;;18.30;99.90;;;;;;5037019;28;20476;-93
2023/10/18 12:15:30;;;;;;;;;;;18.10;99.90;;;;;;5034148;28;19963;-90
2023/10/18 12:17:55;;;;;;;;;;;18.60;99.90;;;;;;5032488;28;19905;-90
2023/10/18 12:20:34;;;;;;;;;;;18.60;99.90;;;;;;5051315;28;19939;-92
2023/10/18 12:23:04;;;;;;;;;;;18.60;99.90;;;;;;5053080;28;19911;-87
2023/10/18 12:25:32;;;;;;;;;;;18.00;99.90;;;;;;5027121;28;19948;-93
2023/10/18 12:28:00;;;;;;;;;;;18.00;99.90;;;;;;5028728;28;19917;-89
2023/10/18 12:30:37;;;;;;;;;;;17.10;99.90;;;;;;5030134;28;20091;-88
2023/10/18 12:33:06;;;;;;;;;;;17.60;99.90;;;;;;5030807;28;19984;-89
2023/10/18 12:35:32;;;;;;;;;;;18.30;99.90;;;;;;5052583;28;19920;-91
2023/10/18 12:37:57;;;;;;;;;;;19.30;99.90;;;;;;5030298;28;19909;-88
2023/10/18 12:40:39;;;;;;;;;;;19.80;99.90;;;;;;5032166;28;19916;-89
2023/10/18 12:43:06;;;;;;;;;;;19.50;99.90;;;;;;5030587;28;20277;-88
2023/10/18 12:45:45;;;;;;;;;;;19.00;99.90;;;;;;5033669;28;19912;-91
2023/10/18 12:48:10;;;;;;;;;;;19.10;99.90;;;;;;5015938;28;19932;-90
2023/10/18 12:50:36;;;;;;;;;;;18.40;99.90;;;;;;5028492;28;20374;-88
2023/10/18 12:53:17;;;;;;;;;;;19.20;99.90;;;;;;5015372;28;19972;-91
2023/10/18 12:55:46;;;;;;;;;;;19.90;99.90;;;;;;5027448;28;19920;-91
2023/10/18 12:58:18;;;;;;;;;;;19.60;99.90;;;;;;5032584;28;19917;-91
2023/10/18 13:00:52;;;;;;;;;;;18.80;99.90;;;;;;5033363;28;20007;-91
2023/10/18 13:03:23;;;;;;;;;;;18.30;99.90;;;;;;5066488;28;19912;-90
2023/10/18 13:05:52;;;;;;;;;;;18.00;99.90;;;;;;5046910;28;20019;-91
2023/10/18 13:08:24;;;;;;;;;;;18.10;99.90;;;;;;5051970;28;19912;-92
2023/10/18 13:13:30;;;;;;;;;;;18.00;99.90;;;;;;5072258;28;20378;-90
2023/10/18 13:15:57;;;;;;;;;;;18.80;99.90;;;;;;5083980;28;19919;-90
2023/10/18 13:18:23;;;;;;;;;;;17.90;99.90;;;;;;5082476;28;19912;-92
2023/10/18 13:20:55;;;;;;;;;;;18.40;99.90;;;;;;5070932;28;19912;-91
2023/10/18 13:23:27;;;;;;;;;;;18.10;99.90;;;;;;5069914;28;20550;-90
2023/10/18 13:25:55;;;;;;;;;;;18.40;99.90;;;;;;5070446;28;19939;-94
2023/10/18 13:28:33;;;;;;;;;;;18.20;99.90;;;;;;5072839;28;19909;-92
2023/10/18 13:31:04;;;;;;;;;;;18.10;99.90;;;;;;5070487;28;19908;-91
2023/10/18 13:33:30;;;;;;;;;;;18.20;99.90;;;;;;5063760;28;19916;-91
2023/10/18 13:35:56;;;;;;;;;;;18.40;99.90;;;;;;5070816;28;19912;-90
2023/10/18 13:38:23;;;;;;;;;;;18.40;99.90;;;;;;5059203;28;19919;-93
2023/10/18 13:40:49;;;;;;;;;;;18.20;99.90;;;;;;5069294;28;19970;-92
2023/10/18 13:43:17;;;;;;;;;;;18.00;99.90;;;;;;5053842;28;19909;-94
2023/10/18 13:45:45;;;;;;;;;;;18.20;99.90;;;;;;5069061;28;19939;-92
2023/10/18 13:48:11;;;;;;;;;;;18.30;99.90;;;;;;5088999;28;20387;-90
2023/10/18 13:50:37;;;;;;;;;;;18.60;99.90;;;;;;5053759;28;19912;-94
2023/10/18 13:53:04;;;;;;;;;;;18.40;99.90;;;;;;5062345;28;19916;-94
2023/10/18 13:55:29;;;;;;;;;;;17.90;99.90;;;;;;5038293;28;19930;-92
2023/10/18 13:57:54;;;;;;;;;;;17.90;99.90;;;;;;5067557;28;19916;-91
2023/10/18 14:00:22;;;;;;;;;;;17.40;99.90;;;;;;5063782;28;19924;-92
2023/10/18 14:02:48;;;;;;;;;;;17.30;99.90;;;;;;5072253;28;19967;-89
2023/10/18 14:05:13;;;;;;;;;;;16.70;99.90;;;;;;5054854;28;20260;-91
2023/10/18 14:07:39;;;;;;;;;;;17.20;99.90;;;;;;5056389;28;19916;-91
2023/10/18 14:10:19;;;;;;;;;;;17.70;99.90;;;;;;5047908;28;19905;-92
2023/10/18 14:12:47;;;;;;;;;;;17.00;99.90;;;;;;5040561;28;19916;-91
2023/10/18 14:15:16;;;;;;;;;;;17.30;99.90;;;;;;5054179;28;20396;-92
2023/10/18 14:17:54;;;;;;;;;;;16.50;99.90;;;;;;5054539;28;19924;-92